Saint Charles, MO (63301)

8:31 AM CST on February 11, 2016 (GMT -0600)
New Town St Charles | | Change Station
CLOSE
Current Station
Personal Weather Station
Location: Saint Charles, MO
Elevation: 446 ft
Nearby Weather Stations

Elev 446 ft 38.84 °N, 90.50 °W | Updated 6 minutes ago

Overcast
Overcast
23.4 °F
Feels Like 23 °F
N
1.7
Wind Variable Wind from West

Today
High -- | Low -- °F
--% Chance of Precip.
Yesterday
High -- | Low -- °F
Precip. -- in
Pressure 30.33 in
Visibility 10.0 miles
Clouds Few 1600 ft
Overcast 4500 ft
Windchill 23 °F
Dew Point 18 °F
Humidity 79%
Rainfall 0.00 in
Snow Depth Not available.
6:58 AM 5:34 PM
Waxing Crescent, 12% visible
SPECI KSET 111412Z AUTO 04008KT 10SM FEW016 OVC045 M06/M09 A3033 RMK AO2 T10561094
Pressure 30.33 in
Visibility 10.0 miles
Clouds Few 1600 ft
Overcast 4500 ft
Windchill 23 °F
Dew Point 18 °F
Humidity 79%
Rainfall 0.00 in
Snow Depth Not available.
6:58 AM 5:34 PM
Waxing Crescent, 12% visible
SPECI KSET 111412Z AUTO 04008KT 10SM FEW016 OVC045 M06/M09 A3033 RMK AO2 T10561094

10-Day Weather Forecast

Almanac

Astronomy

Feb. 11, 2016 Rise Set
Actual Time
Civil Twilight
Nautical Twilight
Astronomical Twilight
Moon
Length of Visible Light
Length of Day
Tomorrow will be .
, % of the Moon is Illuminated

Today's Extremes

State Highs State Lows

Community

WunderPhotos

Upload Photos

1,892,054 photos uploaded!

WunderBlog® & News

Nearby

Air Quality

  Air Quality AQ Index Pollutant
Not available.

Snow Depth

Station Depth Elevation

Earthquake Activity

City Distance Mag. Time & Date
Minimum magnitude displayed is 2.5.

Coastal Water Temperatures

Place Temperature

Stations

Nearby Weather Stations

Station Location Temp. Windchill Dew Point Humidity Wind Precip. Elev Updated Type
                   

Watches & Warnings

There are currently no watches in effect.